createdAt,value
2018-12-13T00:01:07.183Z,2.50
2018-12-13T00:03:36.081Z,2.30
2018-12-13T00:06:04.987Z,3.07
2018-12-13T00:08:33.959Z,3.23
2018-12-13T00:11:02.865Z,2.93
2018-12-13T00:13:31.759Z,2.40
2018-12-13T00:16:00.859Z,2.43
2018-12-13T00:18:29.759Z,3.97
2018-12-13T00:20:58.855Z,2.57
2018-12-13T00:23:27.828Z,2.83
2018-12-13T00:25:56.743Z,3.03
2018-12-13T00:28:25.646Z,3.93
2018-12-13T00:30:54.639Z,2.00
2018-12-13T00:33:23.615Z,2.63
2018-12-13T00:35:52.591Z,2.67
2018-12-13T00:38:21.523Z,2.00
2018-12-13T00:40:50.503Z,2.73
2018-12-13T00:43:19.510Z,2.30
2018-12-13T00:45:48.475Z,3.03
2018-12-13T00:48:17.435Z,2.63
2018-12-13T00:50:46.414Z,2.50
2018-12-13T00:53:15.380Z,2.07
2018-12-13T00:55:44.287Z,2.43
2018-12-13T00:58:13.274Z,1.57
2018-12-13T01:00:42.244Z,2.57
2018-12-13T01:03:11.428Z,2.57
2018-12-13T01:05:40.693Z,3.67
2018-12-13T01:08:09.974Z,2.60
2018-12-13T01:10:39.079Z,1.90
2018-12-13T01:13:08.039Z,1.93
2018-12-13T01:15:36.932Z,3.53
2018-12-13T01:18:05.914Z,1.73
2018-12-13T01:20:34.867Z,2.33
2018-12-13T01:23:03.963Z,4.30
2018-12-13T01:25:33.061Z,2.40
2018-12-13T01:28:02.147Z,2.43
2018-12-13T01:30:31.154Z,3.17
2018-12-13T01:33:00.111Z,3.63
2018-12-13T01:35:29.079Z,2.10
2018-12-13T01:37:58.043Z,2.60
2018-12-13T01:40:27.015Z,1.90
2018-12-13T01:42:55.991Z,2.43
2018-12-13T01:45:24.915Z,2.83
2018-12-13T01:47:53.884Z,1.93
2018-12-13T01:50:22.855Z,2.50
2018-12-13T01:52:51.757Z,1.90
2018-12-13T01:55:20.661Z,3.23
2018-12-13T01:57:49.652Z,2.20
2018-12-13T02:00:18.623Z,3.10
2018-12-13T02:02:47.580Z,1.80
2018-12-13T02:05:16.667Z,2.30
2018-12-13T02:07:45.635Z,2.37
2018-12-13T02:10:14.536Z,2.63
2018-12-13T02:12:43.504Z,2.13
2018-12-13T02:15:12.482Z,3.60
2018-12-13T02:17:41.460Z,1.93
2018-12-13T02:20:10.524Z,3.47
2018-12-13T02:22:39.507Z,2.37
2018-12-13T02:25:08.563Z,2.17
2018-12-13T02:27:37.455Z,3.13
2018-12-13T02:30:06.724Z,2.37
2018-12-13T02:32:35.689Z,3.83
2018-12-13T02:35:04.744Z,2.27
2018-12-13T02:37:33.724Z,3.07
2018-12-13T02:40:02.726Z,4.70
2018-12-13T02:42:31.858Z,2.67
2018-12-13T02:45:01.500Z,3.00
2018-12-13T02:47:30.452Z,2.20
2018-12-13T02:49:59.620Z,2.83
2018-12-13T02:52:28.579Z,2.27
2018-12-13T02:54:57.557Z,2.10
2018-12-13T02:57:26.451Z,2.63
2018-12-13T02:59:55.653Z,2.27
2018-12-13T03:02:24.615Z,3.10
2018-12-13T03:04:53.592Z,2.43
2018-12-13T03:07:22.547Z,2.47
2018-12-13T03:09:51.456Z,3.90
2018-12-13T03:12:20.553Z,2.37
2018-12-13T03:14:49.660Z,2.60
2018-12-13T03:17:18.629Z,3.97
2018-12-13T03:19:47.593Z,2.30
2018-12-13T03:22:16.572Z,3.47
2018-12-13T03:24:45.549Z,4.23
2018-12-13T03:27:14.525Z,2.93
2018-12-13T03:29:43.519Z,3.00
2018-12-13T03:32:12.413Z,2.40
2018-12-13T03:34:41.483Z,3.30
2018-12-13T03:37:10.503Z,3.13
2018-12-13T03:39:39.398Z,3.83
2018-12-13T03:42:08.356Z,3.33
2018-12-13T03:44:37.443Z,3.93
2018-12-13T03:47:06.403Z,2.80
2018-12-13T03:49:35.358Z,3.23
2018-12-13T03:52:04.341Z,3.03
2018-12-13T03:54:33.236Z,2.27
2018-12-13T03:57:02.355Z,2.37
2018-12-13T03:59:31.341Z,2.57
2018-12-13T04:02:00.317Z,1.97
2018-12-13T04:04:29.321Z,3.90
2018-12-13T04:06:58.332Z,2.53
2018-12-13T04:09:27.406Z,2.87
2018-12-13T04:11:56.299Z,2.83
2018-12-13T04:14:25.207Z,3.17
2018-12-13T04:16:54.201Z,3.90
2018-12-13T04:19:23.176Z,2.43
2018-12-13T04:21:52.260Z,2.60
2018-12-13T04:24:21.276Z,2.50
2018-12-13T04:26:50.562Z,3.07
2018-12-13T04:29:19.519Z,2.10
2018-12-13T04:31:48.520Z,2.63
2018-12-13T04:34:17.483Z,3.40
2018-12-13T04:36:46.387Z,4.03
2018-12-13T04:39:15.360Z,2.57
2018-12-13T04:41:44.335Z,3.60
2018-12-13T04:44:13.291Z,2.87
2018-12-13T04:46:42.269Z,4.07
2018-12-13T04:49:11.236Z,3.40
2018-12-13T04:51:40.204Z,3.00
2018-12-13T04:54:09.108Z,2.60
2018-12-13T04:56:38.012Z,4.63
2018-12-13T04:59:07.115Z,4.90
2018-12-13T05:01:36.020Z,3.50
2018-12-13T05:04:04.997Z,3.83
2018-12-13T05:06:33.904Z,3.30
2018-12-13T05:09:04.851Z,2.73
2018-12-13T05:11:33.760Z,4.47
2018-12-13T05:14:02.847Z,3.00
2018-12-13T05:16:31.958Z,3.43
2018-12-13T05:19:01.057Z,4.67
2018-12-13T05:21:30.024Z,3.70
2018-12-13T05:23:59.007Z,2.80
2018-12-13T05:26:27.993Z,3.90
2018-12-13T05:28:56.951Z,3.00
2018-12-13T05:31:25.915Z,3.67
2018-12-13T05:33:55.015Z,3.87
2018-12-13T05:36:23.939Z,3.03
2018-12-13T05:38:52.915Z,4.23
2018-12-13T05:41:22.022Z,3.10
2018-12-13T05:43:52.983Z,3.50
2018-12-13T05:46:22.179Z,3.77
2018-12-13T05:48:51.175Z,4.13
2018-12-13T05:51:20.147Z,3.93
2018-12-13T05:53:49.039Z,3.93
2018-12-13T05:56:17.949Z,4.67
2018-12-13T05:58:46.911Z,3.77
2018-12-13T06:01:15.902Z,4.37
2018-12-13T06:03:44.893Z,5.63
2018-12-13T06:06:14.407Z,4.83
2018-12-13T06:08:43.506Z,4.93
2018-12-13T06:11:12.467Z,5.00
2018-12-13T06:13:41.367Z,3.10
2018-12-13T06:16:10.492Z,3.93
2018-12-13T06:18:39.591Z,4.47
2018-12-13T06:21:11.831Z,4.77
2018-12-13T06:23:39.760Z,4.43
2018-12-13T06:26:08.872Z,4.93
2018-12-13T06:28:37.933Z,4.90
2018-12-13T06:31:06.877Z,5.43
2018-12-13T06:33:35.789Z,3.73
2018-12-13T06:36:04.923Z,4.13
2018-12-13T06:38:33.827Z,4.93
2018-12-13T06:41:03.019Z,5.23
2018-12-13T06:43:31.916Z,3.73
2018-12-13T06:46:00.872Z,3.90
2018-12-13T06:48:29.780Z,4.37
2018-12-13T06:50:58.699Z,5.07
2018-12-13T06:53:27.798Z,3.77
2018-12-13T06:55:56.898Z,5.90
2018-12-13T06:58:26.099Z,3.60
2018-12-13T07:00:55.052Z,3.30
2018-12-13T07:03:24.012Z,4.57
2018-12-13T07:05:53.807Z,3.30
2018-12-13T07:08:22.904Z,2.93
2018-12-13T07:10:52.053Z,3.30
2018-12-13T07:13:20.967Z,3.53
2018-12-13T07:15:50.060Z,3.27
2018-12-13T07:18:19.199Z,3.30
2018-12-13T07:20:48.196Z,2.93
2018-12-13T07:23:17.192Z,2.50
2018-12-13T07:25:46.497Z,2.80
2018-12-13T07:28:15.455Z,3.20
2018-12-13T07:30:44.450Z,2.50
2018-12-13T07:33:13.405Z,3.27
2018-12-13T07:35:42.483Z,3.20
2018-12-13T07:38:14.388Z,3.10
2018-12-13T07:40:43.080Z,3.17
2018-12-13T07:43:11.995Z,2.63
2018-12-13T07:45:40.927Z,3.47
2018-12-13T07:48:10.025Z,3.53
2018-12-13T07:50:38.971Z,2.50
2018-12-13T07:53:07.931Z,2.10
2018-12-13T07:55:37.323Z,2.60
2018-12-13T07:58:07.242Z,3.43
2018-12-13T08:00:36.241Z,2.17
2018-12-13T08:03:05.200Z,2.80
2018-12-13T08:05:34.230Z,2.20
2018-12-13T08:08:03.228Z,4.47
2018-12-13T08:10:32.736Z,1.90
2018-12-13T08:13:01.703Z,2.47
2018-12-13T08:15:30.626Z,3.43
2018-12-13T08:17:59.716Z,3.53
2018-12-13T08:20:28.728Z,2.77
2018-12-13T08:22:57.719Z,3.43
2018-12-13T08:25:27.329Z,2.53
2018-12-13T08:27:56.224Z,2.63
2018-12-13T08:30:25.224Z,2.07
2018-12-13T08:32:54.628Z,2.50
2018-12-13T08:35:24.305Z,3.53
2018-12-13T08:37:53.442Z,2.47
2018-12-13T08:40:22.846Z,2.20
2018-12-13T08:42:51.750Z,2.40
2018-12-13T08:45:20.737Z,3.60
2018-12-13T08:47:50.246Z,3.53
2018-12-13T08:50:19.244Z,1.80
2018-12-13T08:52:48.239Z,1.43
2018-12-13T08:55:17.235Z,1.83
2018-12-13T08:57:46.233Z,1.40
2018-12-13T09:00:15.228Z,1.27
2018-12-13T09:02:44.228Z,1.23
2018-12-13T09:05:13.111Z,1.40
2018-12-13T09:07:42.219Z,1.40
2018-12-13T09:10:11.100Z,1.97
2018-12-13T09:12:40.724Z,0.90
2018-12-13T09:15:10.467Z,2.90
2018-12-13T09:17:40.254Z,1.63
2018-12-13T09:20:09.282Z,1.10
2018-12-13T09:22:38.349Z,1.60
2018-12-13T09:25:07.653Z,3.43
2018-12-13T09:27:36.752Z,1.30
2018-12-13T09:30:15.471Z,1.10
2018-12-13T09:32:44.431Z,1.40
2018-12-13T09:35:13.335Z,1.60
2018-12-13T09:37:47.515Z,1.87
2018-12-13T09:40:13.299Z,2.70
2018-12-13T09:42:42.243Z,1.50
2018-12-13T09:45:11.240Z,2.43
2018-12-13T09:47:40.187Z,1.27
2018-12-13T09:50:09.494Z,1.50
2018-12-13T09:52:38.459Z,1.90
2018-12-13T09:55:07.382Z,1.37
2018-12-13T09:57:36.583Z,1.77
2018-12-13T10:00:08.445Z,2.13
2018-12-13T10:02:37.324Z,1.27
2018-12-13T10:05:06.540Z,1.53
2018-12-13T10:07:35.640Z,2.90
2018-12-13T10:10:05.046Z,1.83
2018-12-13T10:12:34.144Z,2.87
2018-12-13T10:15:03.507Z,1.53
2018-12-13T10:17:32.494Z,1.20
2018-12-13T10:20:01.545Z,1.33
2018-12-13T10:22:30.437Z,1.30
2018-12-13T10:24:59.436Z,1.53
2018-12-13T10:27:28.534Z,1.30
2018-12-13T10:29:57.856Z,1.50
2018-12-13T10:32:27.040Z,3.43
2018-12-13T10:34:56.139Z,2.10
2018-12-13T10:37:25.880Z,1.50
2018-12-13T10:39:54.783Z,1.73
2018-12-13T10:42:24.460Z,2.10
2018-12-13T10:44:53.356Z,1.87
2018-12-13T10:47:22.964Z,1.77
2018-12-13T10:49:51.965Z,1.50
2018-12-13T10:52:20.856Z,1.70
2018-12-13T10:54:49.857Z,1.20
2018-12-13T10:57:18.847Z,1.57
2018-12-13T10:59:47.804Z,1.73
2018-12-13T11:02:22.443Z,1.77
2018-12-13T11:04:51.466Z,1.73
2018-12-13T11:07:20.427Z,2.23
2018-12-13T11:09:49.336Z,1.63
2018-12-13T11:12:18.231Z,2.03
2018-12-13T11:14:47.248Z,2.37
2018-12-13T11:17:16.144Z,2.40
2018-12-13T11:19:45.039Z,2.40
2018-12-13T11:22:14.750Z,2.30
2018-12-13T11:24:43.631Z,2.40
2018-12-13T11:30:23.695Z,2.87
2018-12-13T11:32:52.988Z,1.83
2018-12-13T11:35:22.205Z,1.90
2018-12-13T11:37:51.124Z,1.67
2018-12-13T11:40:20.052Z,2.43
2018-12-13T11:42:48.947Z,2.37
2018-12-13T11:45:18.085Z,1.97
2018-12-13T11:47:46.961Z,2.43
2018-12-13T11:50:15.977Z,2.30
2018-12-13T11:52:47.077Z,2.73
2018-12-13T11:55:34.642Z,2.20
2018-12-13T11:58:03.883Z,3.87
2018-12-13T12:00:33.046Z,2.00
2018-12-13T12:03:02.143Z,1.77
2018-12-13T12:05:31.140Z,2.20
2018-12-13T12:08:00.136Z,3.07
2018-12-13T12:10:29.741Z,2.53
2018-12-13T12:12:58.746Z,2.23
2018-12-13T12:15:27.800Z,3.07
2018-12-13T12:17:56.845Z,3.40
2018-12-13T12:20:26.455Z,3.43
2018-12-13T12:22:55.447Z,2.73
2018-12-13T12:25:25.179Z,3.00
2018-12-13T12:27:54.872Z,3.23
2018-12-13T12:30:23.871Z,4.03
2018-12-13T12:32:52.931Z,3.20
2018-12-13T12:35:21.965Z,3.97
2018-12-13T12:37:50.962Z,3.10
2018-12-13T12:40:19.959Z,3.50
2018-12-13T12:42:49.672Z,2.63
2018-12-13T12:45:18.739Z,2.90
2018-12-13T12:47:47.770Z,2.87
2018-12-13T12:50:16.765Z,4.97
2018-12-13T12:52:45.762Z,3.73
2018-12-13T12:55:14.760Z,4.30
2018-12-13T12:57:43.908Z,5.20
2018-12-13T13:00:13.001Z,3.33
2018-12-13T13:02:42.579Z,4.23
2018-12-13T13:05:11.772Z,4.57
2018-12-13T13:07:40.866Z,3.70
2018-12-13T13:10:10.038Z,3.77
2018-12-13T13:12:39.543Z,3.97
2018-12-13T13:15:08.445Z,4.10
2018-12-13T13:17:37.423Z,5.17
2018-12-13T13:20:06.488Z,4.10
2018-12-13T13:22:35.475Z,4.00
2018-12-13T13:25:04.887Z,3.47
2018-12-13T13:27:34.068Z,4.53
2018-12-13T13:30:05.113Z,4.53
2018-12-13T13:32:34.215Z,3.93
2018-12-13T13:35:03.477Z,4.70
2018-12-13T13:37:32.575Z,4.07
2018-12-13T13:40:01.681Z,4.53
2018-12-13T13:42:30.656Z,4.43
2018-12-13T13:45:00.938Z,4.67
2018-12-13T13:47:30.034Z,4.43
2018-12-13T13:49:58.996Z,4.33
2018-12-13T13:52:28.030Z,4.50
2018-12-13T13:54:57.024Z,5.47
2018-12-13T13:57:26.021Z,4.03
2018-12-13T13:59:55.363Z,5.07
2018-12-13T14:02:24.526Z,4.93
2018-12-13T14:04:53.740Z,3.60
2018-12-13T14:07:22.928Z,4.50
2018-12-13T14:09:52.236Z,6.13
2018-12-13T14:12:21.212Z,4.67
2018-12-13T14:14:50.942Z,4.40
2018-12-13T14:17:20.757Z,4.00
2018-12-13T14:19:49.635Z,4.67
2018-12-13T14:22:18.652Z,5.93
2018-12-13T14:24:48.096Z,4.43
2018-12-13T14:27:18.083Z,5.00
2018-12-13T14:29:47.596Z,5.10
2018-12-13T14:32:16.509Z,5.43
2018-12-13T14:34:46.047Z,4.83
2018-12-13T14:37:15.032Z,4.47
2018-12-13T14:39:44.491Z,4.23
2018-12-13T14:42:14.409Z,5.07
2018-12-13T14:44:43.609Z,4.53
2018-12-13T14:47:12.710Z,5.37
2018-12-13T14:49:41.603Z,4.47
2018-12-13T14:52:10.706Z,3.63
2018-12-13T14:54:39.671Z,5.13
2018-12-13T14:57:08.799Z,4.03
2018-12-13T14:59:38.001Z,4.53
2018-12-13T15:02:07.328Z,5.33
2018-12-13T15:04:36.376Z,4.07
2018-12-13T15:07:05.368Z,4.03
2018-12-13T15:09:34.398Z,5.63
2018-12-13T15:12:03.447Z,4.83
2018-12-13T15:14:32.698Z,5.20
2018-12-13T15:17:01.591Z,4.93
2018-12-13T15:19:30.589Z,4.03
2018-12-13T15:21:59.585Z,4.23
2018-12-13T15:24:28.528Z,4.53
2018-12-13T15:26:58.716Z,4.63
2018-12-13T15:29:27.597Z,4.17
2018-12-13T15:31:59.518Z,4.30
2018-12-13T15:34:28.518Z,4.40
2018-12-13T15:36:57.557Z,3.77
2018-12-13T15:39:26.553Z,3.40
2018-12-13T15:41:55.655Z,6.67
2018-12-13T15:44:25.264Z,4.40
2018-12-13T15:46:54.567Z,5.33
2018-12-13T15:49:24.485Z,3.90
2018-12-13T15:51:53.704Z,4.13
2018-12-13T15:54:22.683Z,5.30
2018-12-13T15:56:52.015Z,4.70
2018-12-13T15:59:21.086Z,4.17
2018-12-13T16:01:50.493Z,3.80
2018-12-13T16:04:19.431Z,3.90
2018-12-13T16:06:48.997Z,4.90
2018-12-13T16:09:18.097Z,3.90
2018-12-13T16:11:47.196Z,5.13
2018-12-13T16:14:16.397Z,4.10
2018-12-13T16:16:45.483Z,5.70
2018-12-13T16:19:14.594Z,4.13
2018-12-13T16:21:43.595Z,4.50
2018-12-13T16:24:12.587Z,6.53
2018-12-13T16:26:41.789Z,4.30
2018-12-13T16:29:11.093Z,5.20
2018-12-13T16:31:40.295Z,5.27
2018-12-13T16:34:09.292Z,4.93
2018-12-13T16:36:38.186Z,5.93
2018-12-13T16:39:08.616Z,4.30
2018-12-13T16:41:37.715Z,4.40
2018-12-13T16:44:07.031Z,4.30
2018-12-13T16:46:36.117Z,4.33
2018-12-13T16:49:05.718Z,5.13
2018-12-13T16:51:34.830Z,6.20
2018-12-13T16:54:04.233Z,4.73
2018-12-13T16:56:33.634Z,5.43
2018-12-13T16:59:02.636Z,4.83
2018-12-13T17:01:32.247Z,4.27
2018-12-13T17:04:01.335Z,4.13
2018-12-13T17:06:30.259Z,3.80
2018-12-13T17:08:59.240Z,4.53
2018-12-13T17:11:28.336Z,4.30
2018-12-13T17:13:57.436Z,5.07
2018-12-13T17:16:26.432Z,3.73
2018-12-13T17:18:55.633Z,4.97
2018-12-13T17:21:24.731Z,4.37
2018-12-13T17:23:53.728Z,4.63
2018-12-13T17:26:22.668Z,4.77
2018-12-13T17:28:51.723Z,3.80
2018-12-13T17:31:20.788Z,4.43
2018-12-13T17:33:49.817Z,4.10
2018-12-13T17:36:19.055Z,4.47
2018-12-13T17:38:48.732Z,4.50
2018-12-13T17:41:17.729Z,4.67
2018-12-13T17:43:46.727Z,3.93
2018-12-13T17:46:16.147Z,4.13
2018-12-13T17:48:45.112Z,3.93
2018-12-13T17:51:14.435Z,4.10
2018-12-13T17:53:43.430Z,3.90
2018-12-13T17:56:12.429Z,4.17
2018-12-13T17:58:41.833Z,4.63
2018-12-13T18:01:11.859Z,4.53
2018-12-13T18:03:41.362Z,5.00
2018-12-13T18:06:10.243Z,3.93
2018-12-13T18:08:39.457Z,4.50
2018-12-13T18:11:08.458Z,4.23
2018-12-13T18:13:37.353Z,4.10
2018-12-13T18:16:06.347Z,4.10
2018-12-13T18:18:35.296Z,3.83
2018-12-13T18:21:04.265Z,3.70
2018-12-13T18:23:33.337Z,4.50
2018-12-13T18:26:02.332Z,3.97
2018-12-13T18:28:31.329Z,4.13
2018-12-13T18:31:00.326Z,4.37
2018-12-13T18:35:55.908Z,4.80
2018-12-13T18:38:25.088Z,5.87
2018-12-13T18:40:54.218Z,4.37
2018-12-13T18:43:23.184Z,4.07
2018-12-13T18:45:52.363Z,3.67
2018-12-13T18:48:21.358Z,3.80
2018-12-13T18:50:50.976Z,4.27
2018-12-13T18:53:20.365Z,3.73
2018-12-13T18:55:51.215Z,4.10
2018-12-13T18:58:22.175Z,4.13
2018-12-13T19:00:54.429Z,3.97
2018-12-13T19:03:23.626Z,3.80
2018-12-13T19:05:52.726Z,4.80
2018-12-13T19:08:22.341Z,4.20
2018-12-13T19:10:51.512Z,4.27
2018-12-13T19:13:20.536Z,3.70
2018-12-13T19:15:49.597Z,3.90
2018-12-13T19:18:18.695Z,4.60
2018-12-13T19:20:47.832Z,4.30
2018-12-13T19:23:17.648Z,4.67
2018-12-13T19:25:46.644Z,4.50
2018-12-13T19:28:16.171Z,6.80
2018-12-13T19:30:45.995Z,4.67
2018-12-13T19:33:15.655Z,4.23
2018-12-13T19:35:44.625Z,5.33
2018-12-13T19:38:13.676Z,5.73
2018-12-13T19:40:48.204Z,4.47
2018-12-13T19:43:13.684Z,4.70
2018-12-13T19:45:42.712Z,5.03
2018-12-13T19:48:12.118Z,5.33
2018-12-13T19:50:42.767Z,5.43
2018-12-13T19:53:11.955Z,4.80
2018-12-13T19:55:41.359Z,4.17
2018-12-13T19:58:10.356Z,4.13
2018-12-13T20:00:39.455Z,5.43
2018-12-13T20:03:08.555Z,5.67
2018-12-13T20:05:37.643Z,4.47
2018-12-13T20:08:07.058Z,4.53
2018-12-13T20:10:36.156Z,4.53
2018-12-13T20:13:05.155Z,4.93
2018-12-13T20:15:34.383Z,5.07
2018-12-13T20:18:03.315Z,5.83
2018-12-13T20:20:32.350Z,4.90
2018-12-13T20:23:01.758Z,5.20
2018-12-13T20:25:31.396Z,5.37
2018-12-13T20:28:00.283Z,4.93
2018-12-13T20:30:29.871Z,4.73
2018-12-13T20:32:58.803Z,4.90
2018-12-13T20:35:27.992Z,5.00
2018-12-13T20:37:56.899Z,6.53
2018-12-13T20:40:25.868Z,5.10
2018-12-13T20:42:54.883Z,5.47
2018-12-13T20:45:23.854Z,4.57
2018-12-13T20:47:53.259Z,5.20
2018-12-13T20:50:22.255Z,4.73
2018-12-13T20:52:51.678Z,4.67
2018-12-13T20:55:20.658Z,4.63
2018-12-13T20:57:49.655Z,5.60
2018-12-13T21:00:18.956Z,4.63
2018-12-13T21:02:47.954Z,5.10
2018-12-13T21:05:16.951Z,6.10
2018-12-13T21:07:46.942Z,5.07
2018-12-13T21:10:16.034Z,4.20
2018-12-13T21:12:45.016Z,4.07
2018-12-13T21:15:13.961Z,5.40
2018-12-13T21:17:42.958Z,6.03
2018-12-13T21:20:11.917Z,4.23
2018-12-13T21:22:40.952Z,6.03
2018-12-13T21:25:10.767Z,5.00
2018-12-13T21:27:39.711Z,5.47
2018-12-13T21:30:08.835Z,4.07
2018-12-13T21:32:37.860Z,4.53
2018-12-13T21:35:08.244Z,4.50
2018-12-13T21:37:37.287Z,5.60
2018-12-13T21:40:06.490Z,5.03
2018-12-13T21:42:35.495Z,5.00
2018-12-13T21:45:05.299Z,4.30
2018-12-13T21:47:34.763Z,5.73
2018-12-13T21:50:05.019Z,4.30
2018-12-13T21:52:34.130Z,5.83
2018-12-13T21:55:03.321Z,4.50
2018-12-13T21:57:32.533Z,5.37
2018-12-13T22:00:01.530Z,5.73
2018-12-13T22:02:30.484Z,4.80
2018-12-13T22:04:59.441Z,4.67
2018-12-13T22:07:28.519Z,4.33
2018-12-13T22:09:57.619Z,4.90
2018-12-13T22:12:26.681Z,5.30
2018-12-13T22:14:55.610Z,4.30
2018-12-13T22:17:24.709Z,4.80
2018-12-13T22:19:53.807Z,4.47
2018-12-13T22:22:23.010Z,5.10
2018-12-13T22:24:51.995Z,5.53
2018-12-13T22:27:21.018Z,5.37
2018-12-13T22:29:49.983Z,5.07
2018-12-13T22:32:19.611Z,5.23
2018-12-13T22:34:49.732Z,4.87
2018-12-13T22:37:18.728Z,4.33
2018-12-13T22:39:48.032Z,5.33
2018-12-13T22:42:17.028Z,5.37
2018-12-13T22:44:45.920Z,3.93
2018-12-13T22:47:15.248Z,4.33
2018-12-13T22:49:44.221Z,5.23
2018-12-13T22:52:13.167Z,5.90
2018-12-13T22:54:42.215Z,6.97
2018-12-13T22:57:11.314Z,4.43
2018-12-13T22:59:40.310Z,5.10
2018-12-13T23:02:09.817Z,4.47
2018-12-13T23:04:39.022Z,4.53
2018-12-13T23:07:08.311Z,5.07
2018-12-13T23:09:37.340Z,4.37
2018-12-13T23:12:06.291Z,5.30
2018-12-13T23:14:35.259Z,5.60
2018-12-13T23:17:04.716Z,4.77
2018-12-13T23:19:33.675Z,4.83
2018-12-13T23:22:02.579Z,5.17
2018-12-13T23:24:31.470Z,4.73
2018-12-13T23:27:00.394Z,4.83
2018-12-13T23:29:29.390Z,4.57
2018-12-13T23:31:58.963Z,6.67
2018-12-13T23:34:27.998Z,5.20
2018-12-13T23:36:56.934Z,4.80
2018-12-13T23:39:26.233Z,4.07
2018-12-13T23:41:55.179Z,6.63
2018-12-13T23:44:24.852Z,4.90
2018-12-13T23:46:53.900Z,4.53
2018-12-13T23:49:22.896Z,4.20
2018-12-13T23:51:51.994Z,6.80
2018-12-13T23:54:21.196Z,5.87
2018-12-13T23:56:50.191Z,4.40
2018-12-13T23:59:19.191Z,4.50
